Terminal Aerodrome Forecast
Issued by NWS

Home | Current Version | Previous Version | Text Only | Print | Product List | Glossary On
Versions: 1 2 3 4 5 6 7 8 9 10 11 12 13 14
000
FTUS42 KGSP 231739
TAFAND
TAF
KAND 231739Z 2318/2418 09005KT P6SM FEW040 SCT050
     FM240900 08003KT P6SM BKN020 OVC050
     FM241400 11003KT P6SM BKN025=

USA.gov is the U.S. government's official web portal to all federal, state and local government web resources and services.